createdAt,value
2019-05-29T00:00:29.034Z,99.90
2019-05-29T00:02:59.999Z,99.90
2019-05-29T00:05:30.939Z,99.90
2019-05-29T00:08:01.918Z,99.90
2019-05-29T00:10:32.896Z,99.90
2019-05-29T00:13:03.831Z,99.90
2019-05-29T00:15:34.804Z,99.90
2019-05-29T00:18:06.281Z,99.90
2019-05-29T00:20:37.325Z,99.90
2019-05-29T00:23:08.494Z,99.90
2019-05-29T00:25:39.511Z,99.90
2019-05-29T00:28:10.609Z,99.90
2019-05-29T00:30:41.641Z,99.90
2019-05-29T00:33:12.510Z,99.90
2019-05-29T00:35:43.455Z,99.90
2019-05-29T00:38:14.726Z,99.90
2019-05-29T00:40:45.839Z,99.90
2019-05-29T00:43:17.560Z,99.90
2019-05-29T00:45:48.628Z,99.90
2019-05-29T00:48:19.564Z,99.90
2019-05-29T00:50:50.532Z,99.90
2019-05-29T00:53:21.463Z,99.90
2019-05-29T00:55:53.310Z,99.90
2019-05-29T00:58:24.242Z,99.90
2019-05-29T01:00:55.231Z,99.90
2019-05-29T01:03:26.197Z,99.90
2019-05-29T01:05:57.164Z,99.90
2019-05-29T01:08:28.132Z,99.90
2019-05-29T01:10:59.087Z,99.90
2019-05-29T01:13:30.065Z,99.90
2019-05-29T01:16:01.003Z,99.90
2019-05-29T01:18:32.073Z,99.90
2019-05-29T01:21:03.012Z,99.90
2019-05-29T01:23:33.986Z,99.90
2019-05-29T01:26:04.924Z,99.90
2019-05-29T01:28:35.935Z,99.90
2019-05-29T01:31:06.936Z,99.90
2019-05-29T01:33:37.905Z,99.90
2019-05-29T01:36:08.849Z,99.90
2019-05-29T01:38:39.821Z,99.90
2019-05-29T01:41:10.761Z,99.90
2019-05-29T01:43:41.731Z,99.90
2019-05-29T01:46:12.672Z,99.90
2019-05-29T01:48:43.680Z,99.90
2019-05-29T01:51:15.427Z,99.90
2019-05-29T01:53:47.476Z,99.90
2019-05-29T01:56:19.689Z,99.90
2019-05-29T01:58:50.766Z,99.90
2019-05-29T02:01:21.927Z,99.90
2019-05-29T02:03:52.995Z,99.90
2019-05-29T02:06:24.232Z,99.90
2019-05-29T02:08:55.200Z,99.90
2019-05-29T02:11:27.469Z,99.90
2019-05-29T02:13:58.492Z,99.90
2019-05-29T02:16:29.432Z,99.90
2019-05-29T02:19:00.406Z,99.90
2019-05-29T02:21:31.348Z,99.90
2019-05-29T02:24:02.320Z,99.90
2019-05-29T02:26:33.288Z,99.90
2019-05-29T02:29:04.234Z,99.90
2019-05-29T02:31:35.132Z,99.90
2019-05-29T02:34:07.428Z,99.90
2019-05-29T02:36:38.622Z,99.90
2019-05-29T02:39:09.764Z,99.90
2019-05-29T02:41:40.996Z,99.90
2019-05-29T02:44:11.868Z,99.90
2019-05-29T02:46:43.841Z,99.90
2019-05-29T02:49:14.786Z,99.90
2019-05-29T02:51:45.750Z,99.90
2019-05-29T02:54:16.683Z,99.90
2019-05-29T02:56:47.657Z,99.90
2019-05-29T02:59:18.597Z,99.90
2019-05-29T03:01:49.566Z,99.90
2019-05-29T03:04:21.721Z,99.90
2019-05-29T03:06:52.784Z,99.90
2019-05-29T03:09:24.744Z,99.90
2019-05-29T03:12:00.030Z,99.90
2019-05-29T03:14:31.580Z,99.90
2019-05-29T03:17:02.381Z,99.90
2019-05-29T03:19:34.757Z,99.90
2019-05-29T03:22:05.993Z,99.90
2019-05-29T03:24:36.921Z,99.90
2019-05-29T03:27:07.892Z,99.90
2019-05-29T03:29:38.835Z,99.90
2019-05-29T03:32:14.031Z,99.90
2019-05-29T03:34:46.877Z,99.90
2019-05-29T03:37:15.105Z,99.90
2019-05-29T03:39:46.054Z,99.90
2019-05-29T03:42:18.094Z,99.90
2019-05-29T03:44:49.042Z,99.90
2019-05-29T03:47:20.078Z,99.90
2019-05-29T03:49:51.019Z,99.90
2019-05-29T03:52:21.990Z,99.90
2019-05-29T03:54:52.932Z,99.90
2019-05-29T03:57:23.899Z,99.90
2019-05-29T03:59:54.838Z,99.90
2019-05-29T04:02:26.703Z,99.90
2019-05-29T04:04:57.750Z,99.90
2019-05-29T04:07:29.283Z,99.90
2019-05-29T04:10:00.470Z,99.90
2019-05-29T04:12:31.503Z,99.90
2019-05-29T04:15:02.459Z,99.90
2019-05-29T04:17:35.590Z,99.90
2019-05-29T04:20:07.548Z,99.90
2019-05-29T04:22:44.865Z,99.90
2019-05-29T04:25:15.798Z,99.90
2019-05-29T04:27:51.270Z,99.90
2019-05-29T04:30:22.301Z,99.90
2019-05-29T04:32:53.331Z,99.90
2019-05-29T04:35:24.288Z,99.90
2019-05-29T04:37:55.320Z,99.90
2019-05-29T04:40:26.262Z,99.90
2019-05-29T04:42:57.635Z,99.90
2019-05-29T04:45:29.046Z,99.90
2019-05-29T04:48:00.424Z,99.90
2019-05-29T04:50:33.246Z,99.90
2019-05-29T04:53:04.068Z,99.90
2019-05-29T04:55:36.973Z,99.90
2019-05-29T04:58:09.204Z,99.90
2019-05-29T05:00:40.240Z,99.90
2019-05-29T05:03:11.182Z,99.90
2019-05-29T05:05:42.171Z,99.90
2019-05-29T05:08:13.104Z,99.90
2019-05-29T05:10:44.576Z,99.90
2019-05-29T05:13:15.529Z,99.90
2019-05-29T05:15:47.712Z,99.90
2019-05-29T05:18:18.652Z,99.90
2019-05-29T05:20:49.621Z,99.90
2019-05-29T05:23:20.566Z,99.90
2019-05-29T05:25:51.467Z,99.90
2019-05-29T05:28:22.413Z,99.90
2019-05-29T05:30:53.389Z,99.90
2019-05-29T05:33:26.054Z,99.90
2019-05-29T05:35:57.039Z,99.90
2019-05-29T05:38:28.081Z,99.90
2019-05-29T05:40:59.053Z,99.90
2019-05-29T05:43:30.687Z,99.90
2019-05-29T05:46:01.661Z,99.90
2019-05-29T05:48:32.990Z,99.90
2019-05-29T05:51:03.966Z,99.90
2019-05-29T05:53:35.381Z,99.90
2019-05-29T05:56:06.381Z,99.90
2019-05-29T05:58:37.820Z,99.90
2019-05-29T06:01:08.898Z,99.90
2019-05-29T06:03:40.658Z,99.90
2019-05-29T06:06:11.950Z,99.90
2019-05-29T06:08:43.925Z,99.90
2019-05-29T06:11:14.877Z,99.90
2019-05-29T06:13:45.861Z,99.90
2019-05-29T06:16:19.598Z,99.90
2019-05-29T06:18:50.586Z,99.90
2019-05-29T06:21:21.529Z,99.90
2019-05-29T06:23:52.507Z,99.90
2019-05-29T06:26:23.457Z,99.90
2019-05-29T06:28:54.519Z,99.90
2019-05-29T06:31:27.300Z,99.90
2019-05-29T06:33:58.525Z,99.90
2019-05-29T06:36:29.504Z,99.90
2019-05-29T06:39:00.478Z,99.90
2019-05-29T06:41:31.471Z,99.90
2019-05-29T06:44:02.528Z,99.90
2019-05-29T06:46:34.330Z,99.90
2019-05-29T06:49:05.437Z,99.90
2019-05-29T06:51:37.099Z,99.90
2019-05-29T06:54:08.117Z,99.90
2019-05-29T06:56:39.797Z,99.90
2019-05-29T06:59:10.832Z,99.90
2019-05-29T07:01:41.837Z,99.90
2019-05-29T07:04:12.910Z,99.90
2019-05-29T07:06:44.810Z,99.90
2019-05-29T07:09:15.794Z,99.90
2019-05-29T07:11:47.527Z,99.90
2019-05-29T07:14:18.592Z,99.90
2019-05-29T07:16:55.541Z,99.90
2019-05-29T07:19:26.780Z,99.90
2019-05-29T07:21:54.882Z,99.90
2019-05-29T07:24:25.820Z,99.90
2019-05-29T07:26:58.154Z,99.90
2019-05-29T07:29:29.148Z,99.90
2019-05-29T07:32:00.121Z,99.90
2019-05-29T07:34:49.655Z,99.90
2019-05-29T07:37:06.823Z,99.90
2019-05-29T07:39:37.765Z,99.90
2019-05-29T07:42:08.744Z,99.90
2019-05-29T07:44:40.003Z,99.90
2019-05-29T07:47:11.064Z,99.90
2019-05-29T07:49:44.836Z,99.90
2019-05-29T07:52:14.617Z,99.90
2019-05-29T07:54:45.826Z,99.90
2019-05-29T07:57:16.945Z,99.90
2019-05-29T07:59:48.838Z,99.90
2019-05-29T08:02:19.954Z,99.90
2019-05-29T08:04:50.983Z,99.90
2019-05-29T08:07:21.992Z,99.90
2019-05-29T08:09:52.960Z,99.90
2019-05-29T08:12:23.922Z,99.90
2019-05-29T08:14:54.903Z,99.90
2019-05-29T08:17:25.854Z,99.90
2019-05-29T08:20:06.115Z,99.90
2019-05-29T08:22:34.191Z,99.90
2019-05-29T08:25:02.148Z,99.90
2019-05-29T08:27:33.108Z,99.90
2019-05-29T08:30:08.246Z,99.90
2019-05-29T08:32:39.190Z,99.90
2019-05-29T08:35:10.768Z,99.90
2019-05-29T08:37:42.762Z,99.90
2019-05-29T08:40:14.338Z,99.90
2019-05-29T08:42:45.300Z,99.90
2019-05-29T08:45:17.720Z,99.90
2019-05-29T08:47:49.677Z,99.90
2019-05-29T08:50:20.822Z,99.90
2019-05-29T08:52:52.346Z,99.90
2019-05-29T08:55:23.403Z,99.90
2019-05-29T08:57:54.345Z,99.90
2019-05-29T09:00:25.429Z,99.90
2019-05-29T09:02:56.400Z,99.90
2019-05-29T09:05:27.343Z,99.90
2019-05-29T09:07:58.312Z,99.90
2019-05-29T09:10:29.262Z,99.90
2019-05-29T09:13:04.798Z,99.90
2019-05-29T09:15:32.966Z,99.90
2019-05-29T09:18:03.938Z,99.90
2019-05-29T09:20:57.906Z,99.90
2019-05-29T09:23:07.576Z,99.90
2019-05-29T09:25:38.522Z,99.90
2019-05-29T09:28:16.596Z,99.90
2019-05-29T09:30:48.161Z,99.90
2019-05-29T09:33:21.322Z,99.90
2019-05-29T09:35:51.909Z,99.90
2019-05-29T09:38:23.088Z,99.90
2019-05-29T09:40:54.234Z,99.90
2019-05-29T09:43:29.738Z,99.90
2019-05-29T09:46:01.455Z,99.90
2019-05-29T09:48:30.565Z,99.90
2019-05-29T09:51:18.212Z,99.90
2019-05-29T09:53:34.230Z,99.90
2019-05-29T09:56:06.112Z,99.90
2019-05-29T09:58:37.068Z,99.90
2019-05-29T10:01:21.740Z,99.90
2019-05-29T10:03:40.705Z,99.90
2019-05-29T10:06:11.696Z,99.90
2019-05-29T10:08:42.637Z,99.90
2019-05-29T10:11:13.613Z,99.90
2019-05-29T10:13:44.834Z,99.90
2019-05-29T10:16:15.803Z,99.90
2019-05-29T10:18:46.810Z,99.90
2019-05-29T10:21:17.789Z,99.90
2019-05-29T10:23:48.779Z,99.90
2019-05-29T10:26:21.745Z,99.90
2019-05-29T10:29:05.481Z,99.90
2019-05-29T10:31:25.400Z,99.90
2019-05-29T10:33:56.404Z,99.90
2019-05-29T10:36:27.354Z,99.90
2019-05-29T10:38:58.326Z,99.90
2019-05-29T10:41:29.280Z,99.90
2019-05-29T10:44:00.252Z,99.90
2019-05-29T10:46:31.191Z,99.90
2019-05-29T10:49:04.589Z,99.90
2019-05-29T10:51:35.654Z,99.90
2019-05-29T10:54:06.746Z,99.90
2019-05-29T10:56:37.696Z,99.90
2019-05-29T10:59:08.670Z,99.90
2019-05-29T11:01:39.612Z,99.90
2019-05-29T11:04:10.623Z,99.90
2019-05-29T11:06:41.615Z,99.90
2019-05-29T11:09:12.596Z,99.90
2019-05-29T11:11:43.549Z,99.90
2019-05-29T11:14:14.566Z,99.90
2019-05-29T11:16:46.830Z,99.90
2019-05-29T11:19:18.108Z,99.90
2019-05-29T11:21:49.711Z,99.90
2019-05-29T11:24:20.813Z,99.90
2019-05-29T11:26:52.543Z,99.90
2019-05-29T11:29:23.712Z,99.90
2019-05-29T11:31:55.047Z,99.90
2019-05-29T11:34:26.111Z,99.90
2019-05-29T11:36:58.529Z,99.40
2019-05-29T11:39:29.499Z,96.70
2019-05-29T11:42:00.437Z,98.40
2019-05-29T11:44:31.409Z,92.40
2019-05-29T11:47:02.919Z,88.70
2019-05-29T11:49:34.001Z,86.60
2019-05-29T11:52:21.421Z,90.90
2019-05-29T11:54:37.723Z,86.80
2019-05-29T11:57:08.660Z,78.60
2019-05-29T11:59:39.659Z,76.80
2019-05-29T12:02:10.600Z,75.30
2019-05-29T12:04:41.567Z,74.20
2019-05-29T12:07:12.505Z,70.90
2019-05-29T12:09:43.489Z,69.40
2019-05-29T12:12:14.443Z,73.20
2019-05-29T12:15:00.735Z,76.20
2019-05-29T12:17:19.059Z,72.80
2019-05-29T12:19:50.042Z,75.60
2019-05-29T12:22:20.916Z,76.50
2019-05-29T12:24:52.542Z,79.30
2019-05-29T12:27:24.599Z,80.70
2019-05-29T12:29:56.588Z,87.10
2019-05-29T12:32:27.695Z,81.80
2019-05-29T12:34:59.693Z,82.00
2019-05-29T12:37:31.002Z,87.50
2019-05-29T12:40:02.048Z,85.20
2019-05-29T12:42:34.014Z,89.30
2019-05-29T12:45:06.993Z,91.40
2019-05-29T12:47:37.962Z,93.40
2019-05-29T12:50:13.776Z,98.40
2019-05-29T12:52:44.727Z,99.90
2019-05-29T12:55:15.930Z,99.90
2019-05-29T12:57:46.861Z,99.90
2019-05-29T13:00:20.109Z,99.90
2019-05-29T13:02:51.048Z,99.90
2019-05-29T13:05:22.938Z,99.90
2019-05-29T13:07:54.727Z,99.90
2019-05-29T13:10:30.550Z,99.90
2019-05-29T13:13:04.797Z,99.90
2019-05-29T13:15:31.432Z,99.90
2019-05-29T13:18:09.111Z,99.90
2019-05-29T13:20:35.041Z,99.90
2019-05-29T13:23:07.288Z,99.90
2019-05-29T13:25:38.536Z,99.90
2019-05-29T13:28:11.054Z,99.90
2019-05-29T13:30:42.036Z,99.90
2019-05-29T13:33:13.041Z,99.90
2019-05-29T13:35:44.077Z,99.90
2019-05-29T13:38:15.051Z,99.90
2019-05-29T13:40:45.988Z,99.90
2019-05-29T13:43:17.039Z,99.90
2019-05-29T13:45:47.971Z,99.90
2019-05-29T13:48:18.939Z,99.90
2019-05-29T13:50:49.880Z,99.90
2019-05-29T13:53:20.847Z,99.90
2019-05-29T13:55:51.816Z,99.90
2019-05-29T13:58:22.792Z,99.90
2019-05-29T14:00:54.844Z,99.90
2019-05-29T14:03:25.830Z,99.90
2019-05-29T14:05:56.822Z,99.90
2019-05-29T14:08:29.236Z,99.90
2019-05-29T14:11:00.869Z,99.90
2019-05-29T14:13:31.906Z,99.90
2019-05-29T14:16:04.107Z,99.90
2019-05-29T14:18:35.208Z,99.90
2019-05-29T14:21:07.366Z,99.90
2019-05-29T14:23:39.820Z,99.90
2019-05-29T14:26:11.218Z,99.90
2019-05-29T14:28:42.295Z,99.90
2019-05-29T14:31:13.240Z,99.90
2019-05-29T14:33:44.210Z,99.90
2019-05-29T14:36:15.167Z,99.90
2019-05-29T14:38:46.143Z,99.90
2019-05-29T14:41:17.090Z,99.90
2019-05-29T14:43:48.064Z,99.90
2019-05-29T14:46:19.024Z,99.90
2019-05-29T14:48:50.030Z,99.90
2019-05-29T14:51:21.015Z,99.90
2019-05-29T14:53:52.048Z,99.90
2019-05-29T14:56:22.980Z,99.90
2019-05-29T14:58:54.041Z,99.90
2019-05-29T15:01:24.986Z,99.90
2019-05-29T15:03:55.982Z,99.90
2019-05-29T15:06:26.986Z,99.90
2019-05-29T15:08:57.964Z,99.90
2019-05-29T15:11:28.908Z,99.90
2019-05-29T15:13:59.900Z,99.90
2019-05-29T15:16:30.849Z,99.90
2019-05-29T15:19:01.826Z,99.90
2019-05-29T15:21:33.786Z,99.90
2019-05-29T15:24:05.697Z,99.90
2019-05-29T15:26:36.771Z,99.90
2019-05-29T15:29:08.051Z,99.90
2019-05-29T15:31:39.073Z,99.90
2019-05-29T15:34:10.316Z,99.90
2019-05-29T15:36:41.268Z,99.90
2019-05-29T15:39:12.734Z,99.90
2019-05-29T15:41:43.772Z,99.90
2019-05-29T15:44:15.082Z,99.90
2019-05-29T15:46:46.099Z,99.90
2019-05-29T15:49:17.384Z,99.90
2019-05-29T15:51:48.357Z,99.90
2019-05-29T15:54:19.358Z,99.90
2019-05-29T15:56:50.400Z,99.90
2019-05-29T15:59:21.380Z,99.90
2019-05-29T16:01:52.373Z,99.90
2019-05-29T16:04:24.490Z,99.90
2019-05-29T16:06:55.676Z,99.90
2019-05-29T16:09:26.911Z,99.90
2019-05-29T16:11:57.851Z,99.90
2019-05-29T16:14:28.829Z,99.90
2019-05-29T16:16:59.772Z,99.90
2019-05-29T16:19:30.750Z,99.90
2019-05-29T16:22:01.711Z,99.90
2019-05-29T16:24:32.736Z,99.90
2019-05-29T16:27:08.683Z,99.90
2019-05-29T16:29:36.836Z,99.90
2019-05-29T16:32:07.870Z,99.90
2019-05-29T16:34:42.128Z,99.90
2019-05-29T16:37:13.624Z,99.90
2019-05-29T16:39:44.743Z,99.90
2019-05-29T16:42:15.921Z,99.90
2019-05-29T16:44:46.954Z,99.90
2019-05-29T16:47:18.665Z,99.90
2019-05-29T16:49:49.802Z,99.90
2019-05-29T16:52:20.923Z,99.90
2019-05-29T16:54:52.049Z,99.90
2019-05-29T16:57:23.440Z,99.90
2019-05-29T16:59:54.396Z,99.90
2019-05-29T17:02:25.393Z,99.90
2019-05-29T17:04:58.392Z,99.90
2019-05-29T17:07:29.006Z,99.90
2019-05-29T17:10:00.943Z,99.90
2019-05-29T17:12:31.937Z,99.90
2019-05-29T17:15:03.094Z,99.90
2019-05-29T17:17:34.127Z,99.90
2019-05-29T17:20:12.518Z,99.90
2019-05-29T17:22:43.494Z,99.90
2019-05-29T17:25:14.840Z,99.90
2019-05-29T17:27:45.893Z,99.90
2019-05-29T17:30:23.036Z,99.90
2019-05-29T17:32:54.111Z,99.90
2019-05-29T17:35:26.933Z,99.90
2019-05-29T17:37:57.946Z,99.90
2019-05-29T17:40:28.914Z,99.90
2019-05-29T17:42:59.887Z,99.90
2019-05-29T17:45:30.921Z,99.90
2019-05-29T17:48:03.467Z,99.90
2019-05-29T17:50:34.493Z,99.90
2019-05-29T17:53:05.444Z,99.90
2019-05-29T17:55:37.780Z,99.90
2019-05-29T17:58:22.979Z,99.90
2019-05-29T18:00:54.827Z,99.90
2019-05-29T18:03:26.366Z,99.90
2019-05-29T18:05:57.429Z,99.90
2019-05-29T18:08:28.379Z,99.90
2019-05-29T18:10:59.370Z,99.90
2019-05-29T18:13:31.323Z,99.90
2019-05-29T18:16:02.311Z,99.90
2019-05-29T18:18:33.278Z,99.90
2019-05-29T18:21:04.256Z,99.90
2019-05-29T18:23:35.261Z,99.90
2019-05-29T18:26:06.223Z,99.90
2019-05-29T18:28:37.182Z,99.90
2019-05-29T18:31:08.168Z,99.90
2019-05-29T18:33:39.117Z,99.90
2019-05-29T18:36:10.082Z,99.90
2019-05-29T18:38:41.032Z,99.90
2019-05-29T18:41:12.011Z,99.90
2019-05-29T18:43:42.961Z,99.90
2019-05-29T18:46:13.952Z,99.90
2019-05-29T18:48:44.803Z,99.90
2019-05-29T18:51:15.774Z,99.90
2019-05-29T18:53:46.720Z,99.90
2019-05-29T18:56:17.619Z,99.90
2019-05-29T18:58:48.564Z,99.90
2019-05-29T19:01:19.524Z,99.90
2019-05-29T19:03:50.464Z,99.90
2019-05-29T19:06:21.515Z,99.90
2019-05-29T19:08:52.469Z,99.90
2019-05-29T19:11:23.840Z,99.90
2019-05-29T19:13:58.160Z,99.90
2019-05-29T19:16:30.000Z,99.90
2019-05-29T19:19:01.068Z,99.90
2019-05-29T19:21:32.628Z,99.90
2019-05-29T19:24:03.933Z,99.90
2019-05-29T19:26:36.762Z,99.90
2019-05-29T19:29:07.597Z,99.90
2019-05-29T19:31:42.508Z,99.90
2019-05-29T19:34:12.212Z,99.90
2019-05-29T19:36:43.273Z,99.90
2019-05-29T19:39:14.242Z,99.90
2019-05-29T19:41:45.190Z,99.90
2019-05-29T19:44:16.176Z,99.90
2019-05-29T19:46:53.617Z,99.90
2019-05-29T19:49:20.879Z,99.90
2019-05-29T19:51:51.824Z,99.90
2019-05-29T19:54:22.873Z,99.90
2019-05-29T19:56:53.823Z,99.90
2019-05-29T19:59:25.856Z,99.90
2019-05-29T20:01:56.932Z,99.90
2019-05-29T20:04:28.484Z,99.90
2019-05-29T20:06:59.458Z,99.90
2019-05-29T20:09:31.258Z,99.90
2019-05-29T20:12:02.274Z,99.90
2019-05-29T20:14:33.797Z,99.90
2019-05-29T20:17:04.879Z,99.90
2019-05-29T20:19:39.138Z,99.90
2019-05-29T20:22:08.504Z,99.90
2019-05-29T20:24:39.477Z,99.90
2019-05-29T20:27:10.458Z,99.90
2019-05-29T20:29:42.630Z,99.90
2019-05-29T20:32:13.684Z,99.90
2019-05-29T20:34:44.683Z,99.90
2019-05-29T20:37:15.675Z,99.90
2019-05-29T20:39:46.762Z,99.90
2019-05-29T20:42:17.722Z,99.90
2019-05-29T20:44:48.700Z,99.90
2019-05-29T20:47:19.651Z,99.90
2019-05-29T20:49:50.937Z,99.90
2019-05-29T20:52:21.894Z,99.90
2019-05-29T20:54:52.958Z,99.90
2019-05-29T20:57:23.979Z,99.90
2019-05-29T20:59:54.966Z,99.90
2019-05-29T21:02:25.921Z,99.90
2019-05-29T21:04:57.807Z,99.90
2019-05-29T21:07:28.768Z,99.90
2019-05-29T21:09:59.755Z,99.90
2019-05-29T21:12:30.697Z,99.90
2019-05-29T21:15:01.693Z,99.90
2019-05-29T21:17:33.750Z,99.90
2019-05-29T21:20:07.709Z,99.90
2019-05-29T21:22:38.726Z,99.90
2019-05-29T21:25:14.810Z,99.90
2019-05-29T21:27:46.699Z,99.90
2019-05-29T21:30:15.889Z,99.90
2019-05-29T21:32:47.875Z,99.90
2019-05-29T21:35:18.830Z,99.90
2019-05-29T21:37:49.815Z,99.90
2019-05-29T21:40:20.802Z,99.90
2019-05-29T21:42:51.777Z,99.90
2019-05-29T21:45:22.731Z,99.90
2019-05-29T21:47:53.729Z,99.90
2019-05-29T21:50:24.765Z,99.90
2019-05-29T21:52:55.725Z,99.90
2019-05-29T21:55:26.843Z,99.90
2019-05-29T21:57:57.858Z,99.90
2019-05-29T22:00:38.167Z,99.90
2019-05-29T22:03:10.115Z,99.90
2019-05-29T22:05:42.721Z,99.90
2019-05-29T22:08:13.936Z,99.90
2019-05-29T22:10:45.413Z,99.90
2019-05-29T22:13:16.371Z,99.90
2019-05-29T22:15:47.347Z,99.90
2019-05-29T22:18:18.291Z,99.90
2019-05-29T22:20:49.262Z,99.90
2019-05-29T22:23:20.203Z,99.90
2019-05-29T22:25:51.295Z,99.90
2019-05-29T22:28:22.309Z,99.90
2019-05-29T22:30:53.391Z,99.90
2019-05-29T22:33:24.416Z,99.90
2019-05-29T22:35:55.751Z,99.90
2019-05-29T22:38:26.713Z,99.90
2019-05-29T22:40:57.789Z,99.90
2019-05-29T22:43:28.811Z,99.90
2019-05-29T22:45:59.793Z,99.90
2019-05-29T22:48:30.737Z,99.90
2019-05-29T22:51:02.088Z,99.90
2019-05-29T22:53:33.151Z,99.90
2019-05-29T22:56:04.133Z,99.90
2019-05-29T22:58:35.073Z,99.90
2019-05-29T23:01:06.149Z,99.90
2019-05-29T23:03:37.107Z,99.90
2019-05-29T23:06:08.075Z,99.90
2019-05-29T23:08:39.024Z,99.90
2019-05-29T23:11:10.004Z,99.90
2019-05-29T23:13:40.953Z,99.90
2019-05-29T23:16:11.929Z,99.90
2019-05-29T23:18:42.876Z,99.90
2019-05-29T23:21:13.847Z,99.90
2019-05-29T23:23:44.788Z,99.90
2019-05-29T23:26:15.760Z,99.90
2019-05-29T23:28:47.757Z,99.90
2019-05-29T23:31:18.753Z,99.90
2019-05-29T23:33:49.695Z,99.90
2019-05-29T23:36:20.671Z,99.90
2019-05-29T23:38:53.065Z,99.90
2019-05-29T23:41:24.189Z,99.90
2019-05-29T23:43:55.441Z,99.90
2019-05-29T23:46:26.595Z,99.90
2019-05-29T23:48:57.899Z,99.90
2019-05-29T23:51:28.900Z,99.90
2019-05-29T23:53:59.909Z,99.90
2019-05-29T23:56:30.881Z,99.90
2019-05-29T23:59:02.004Z,99.90
